Time;durP1;ratioP1;P1;durP2;ratioP2;P2;SDS_P1;SDS_P2;PMS_P1;PMS_P2;Temp;Humidity;BMP_temperature;BMP_pressure;BME280_temperature;BME280_humidity;BME280_pressure;Samples;Min_cycle;Max_cycle;Signal;HPM_P1;HPM_P2
2023/10/16 00:01:26;;;;;;;1.37;1.20;;;6.90;1.00;;;;;;4983007;28;20549;-87
2023/10/16 00:03:55;;;;;;;4.90;1.20;;;7.10;99.90;;;;;;4982662;28;20463;-87
2023/10/16 00:06:24;;;;;;;1.77;1.20;;;7.10;99.90;;;;;;4982676;28;20457;-87
2023/10/16 00:09:00;;;;;;;1.67;1.00;;;6.90;1.00;;;;;;4995238;28;20416;-88
2023/10/16 00:11:31;;;;;;;4.03;2.70;;;7.10;99.90;;;;;;5001394;28;20209;-88
2023/10/16 00:14:14;;;;;;;1.87;1.23;;;7.10;99.90;;;;;;4999000;28;20441;-86
2023/10/16 00:16:51;;;;;;;3.03;1.50;;;7.00;99.90;;;;;;4988072;28;20449;-87
2023/10/16 00:19:37;;;;;;;2.80;1.27;;;7.10;1.00;;;;;;4982378;28;20485;-87
2023/10/16 00:22:16;;;;;;;5.35;1.85;;;6.90;99.90;;;;;;4996557;28;20437;-88
2023/10/16 00:24:58;;;;;;;1.70;1.50;;;6.90;1.00;;;;;;5001032;28;20244;-88
2023/10/16 00:27:52;;;;;;;6.53;1.90;;;6.90;1.00;;;;;;4994211;28;20205;-87
2023/10/16 00:30:31;;;;;;;1.40;1.20;;;6.90;1.00;;;;;;4995390;28;20469;-87
2023/10/16 00:33:25;;;;;;;1.20;1.07;;;6.90;1.00;;;;;;5000270;28;20421;-87
2023/10/16 00:35:53;;;;;;;3.17;2.70;;;;;;;;;;5000022;28;20425;-87
2023/10/16 00:38:25;;;;;;;2.83;1.60;;;;;;;;;;5000557;28;20444;-87
2023/10/16 00:41:10;;;;;;;4.88;1.75;;;6.90;1.00;;;;;;4999473;28;20457;-87
2023/10/16 00:43:40;;;;;;;7.93;1.80;;;;;;;;;;4997772;28;20221;-87
2023/10/16 00:46:15;;;;;;;5.43;2.70;;;6.90;1.00;;;;;;4988118;28;20453;-87
2023/10/16 00:51:45;;;;;;;3.27;1.47;;;6.80;89.80;;;;;;4985106;28;20245;-87
2023/10/16 00:54:27;;;;;;;1.75;1.25;;;6.80;1.00;;;;;;4988551;28;20415;-86
2023/10/16 00:56:59;;;;;;;1.50;1.30;;;6.80;1.00;;;;;;4997759;28;20174;-87
2023/10/16 00:59:36;;;;;;;6.90;1.70;;;6.80;1.00;;;;;;4996829;28;20814;-88
2023/10/16 01:02:32;;;;;;;1.20;1.10;;;6.80;1.00;;;;;;4995134;28;20408;-88
2023/10/16 01:05:07;;;;;;;2.00;1.20;;;;;;;;;;4992788;28;20489;-86
2023/10/16 01:07:37;;;;;;;4.30;1.67;;;;;;;;;;4988446;28;20433;-86
2023/10/16 01:10:10;;;;;;;11.18;1.70;;;;;;;;;;4998241;28;20461;-85
2023/10/16 01:12:55;;;;;;;4.97;1.92;;;6.90;1.00;;;;;;4998062;28;20206;-87
2023/10/16 01:15:31;;;;;;;5.43;1.70;;;6.90;21.40;;;;;;4999038;28;20190;-88
2023/10/16 01:18:15;;;;;;;4.68;1.55;;;6.80;1.00;;;;;;4997815;28;20472;-87
2023/10/16 01:21:13;;;;;;;2.83;1.40;;;6.80;1.00;;;;;;4999018;28;20209;-87
2023/10/16 01:26:42;;;;;;;1.70;1.60;;;;;;;;;;4988028;28;20455;-86
2023/10/16 01:29:20;;;;;;;5.43;2.80;;;6.70;1.00;;;;;;4998717;28;20485;-87
2023/10/16 01:37:43;;;;;;;3.67;1.70;;;;;;;;;;4998464;28;20214;-88
2023/10/16 01:40:21;;;;;;;4.78;1.67;;;6.60;99.90;;;;;;4999017;28;20205;-86
2023/10/16 01:43:05;;;;;;;4.38;1.20;;;6.60;99.90;;;;;;4997550;28;20220;-86
2023/10/16 01:45:49;;;;;;;;;;;;;;;;;;;;;
2023/10/16 01:48:21;;;;;;;3.13;1.85;;;6.60;99.90;;;;;;4987965;28;20535;-87
2023/10/16 01:50:56;;;;;;;5.47;1.45;;;6.60;99.90;;;;;;4989483;28;20218;-87
2023/10/16 01:53:33;;;;;;;5.28;1.77;;;;;;;;;;4982823;28;20205;-87
2023/10/16 01:56:12;;;;;;;6.47;1.92;;;6.70;99.90;;;;;;4982136;28;20213;-87
2023/10/16 02:01:31;;;;;;;2.35;1.17;;;6.60;99.90;;;;;;4979924;28;20453;-87
2023/10/16 02:04:13;;;;;;;5.72;2.35;;;6.60;99.90;;;;;;4984169;28;20256;-87
2023/10/16 02:06:48;;;;;;;3.17;1.45;;;6.60;99.90;;;;;;4982253;28;20194;-87
2023/10/16 02:09:52;;;;;;;4.10;1.65;;;6.60;99.90;;;;;;4981854;28;20236;-86
2023/10/16 02:12:25;;;;;;;5.63;2.13;;;6.60;1.00;;;;;;4966398;28;20205;-86
2023/10/16 02:15:06;;;;;;;4.03;1.55;;;6.50;99.90;;;;;;4981004;28;20197;-88
2023/10/16 02:17:42;;;;;;;1.55;1.30;;;7.40;99.90;;;;;;4980655;28;20202;-87
2023/10/16 02:20:36;;;;;;;4.40;1.33;;;6.80;1.00;;;;;;4982827;28;20233;-87
2023/10/16 02:23:29;;;;;;;5.25;1.60;;;6.40;1.00;;;;;;4998704;28;20190;-87
2023/10/16 02:26:05;;;;;;;5.80;1.58;;;;;;;;;;4995474;28;20202;-87
2023/10/16 02:28:35;;;;;;;3.15;1.35;;;6.50;1.00;;;;;;4994327;28;20197;-87
2023/10/16 02:31:10;;;;;;;3.28;1.20;;;6.50;1.00;;;;;;4984590;28;20275;-87
2023/10/16 02:33:45;;;;;;;4.97;2.10;;;6.40;1.00;;;;;;4987110;28;20253;-86
2023/10/16 02:36:18;;;;;;;2.80;1.60;;;6.40;1.00;;;;;;4994105;28;20201;-87
2023/10/16 02:38:50;;;;;;;6.75;1.85;;;6.50;1.00;;;;;;4996468;28;20193;-87
2023/10/16 02:41:20;;;;;;;2.95;2.13;;;6.30;1.00;;;;;;4992501;28;20217;-87
2023/10/16 02:43:59;;;;;;;1.88;1.77;;;4.50;1.00;;;;;;4979418;28;20225;-86
2023/10/16 02:46:27;;;;;;;4.78;1.40;;;6.40;1.00;;;;;;4981361;28;20182;-87
2023/10/16 02:48:55;;;;;;;2.05;1.50;;;;;;;;;;4996289;28;20238;-86
2023/10/16 02:51:22;;;;;;;2.42;1.40;;;;;;;;;;4995647;28;20213;-87
2023/10/16 02:53:51;;;;;;;2.53;1.53;;;;;;;;;;4993925;28;20197;-87
2023/10/16 02:56:25;;;;;;;2.08;1.27;;;6.30;99.90;;;;;;4987090;28;20452;-87
2023/10/16 02:58:56;;;;;;;3.90;1.70;;;6.20;99.90;;;;;;4986635;28;20285;-88
2023/10/16 03:04:16;;;;;;;7.22;1.73;;;6.30;99.90;;;;;;4993715;28;20234;-87
2023/10/16 03:07:23;;;;;;;4.68;1.40;;;6.30;99.90;;;;;;4985183;28;20205;-86
2023/10/16 03:09:54;;;;;;;4.30;1.35;;;6.20;99.90;;;;;;4983494;28;20233;-88
2023/10/16 03:12:52;;;;;;;6.15;1.73;;;6.30;1.00;;;;;;4984344;28;20245;-87
2023/10/16 03:18:47;;;;;;;3.88;2.00;;;6.30;99.90;;;;;;4924518;29;20199;-87
2023/10/16 03:21:30;;;;;;;3.78;1.88;;;6.30;99.90;;;;;;4995365;28;20237;-87
2023/10/16 03:27:27;;;;;;;3.00;1.10;;;6.30;99.90;;;;;;4999519;28;20177;-86
2023/10/16 03:30:04;;;;;;;4.15;1.38;;;6.20;1.00;;;;;;4996512;28;20217;-86
2023/10/16 03:32:38;;;;;;;1.92;1.45;;;6.30;99.90;;;;;;4987894;28;20201;-86
2023/10/16 03:35:09;;;;;;;3.95;1.52;;;6.30;99.90;;;;;;4995550;28;20193;-87
2023/10/16 03:37:48;;;;;;;2.95;1.67;;;6.20;99.90;;;;;;4985958;28;20194;-87
2023/10/16 03:40:30;;;;;;;4.13;1.40;;;6.20;1.00;;;;;;4985407;28;20236;-87
2023/10/16 03:43:08;;;;;;;4.93;1.58;;;6.10;99.90;;;;;;4992953;28;20206;-87
2023/10/16 03:45:43;;;;;;;3.55;1.50;;;6.20;1.00;;;;;;4988237;28;20229;-87
2023/10/16 03:48:16;;;;;;;5.30;1.30;;;5.80;1.00;;;;;;4982557;28;20193;-87
2023/10/16 03:51:06;;;;;;;1.65;1.50;;;6.20;1.00;;;;;;4983746;28;20237;-87
2023/10/16 03:53:46;;;;;;;3.38;1.98;;;6.10;1.00;;;;;;4982366;28;20289;-87
2023/10/16 03:56:36;;;;;;;2.83;1.58;;;6.20;1.00;;;;;;4982799;28;20205;-87
2023/10/16 03:59:23;;;;;;;4.57;2.65;;;6.10;1.00;;;;;;4990990;28;20213;-87
2023/10/16 04:04:58;;;;;;;3.88;1.83;;;6.10;1.00;;;;;;4988803;28;20289;-86
2023/10/16 04:07:31;;;;;;;3.47;1.77;;;5.90;33.50;;;;;;4997358;28;20538;-87
2023/10/16 04:12:52;;;;;;;4.95;1.40;;;6.10;1.00;;;;;;4997215;28;20217;-85
2023/10/16 04:18:36;;;;;;;3.38;1.75;;;6.10;1.00;;;;;;5000042;28;20173;-88
2023/10/16 04:23:54;;;;;;;2.60;1.65;;;6.10;1.00;;;;;;4994602;28;20189;-87
2023/10/16 04:26:56;;;;;;;2.25;1.40;;;6.70;1.00;;;;;;4986653;28;20210;-88
2023/10/16 04:29:28;;;;;;;2.20;1.48;;;;;;;;;;4985603;28;20257;-87
2023/10/16 04:32:19;;;;;;;3.72;1.30;;;6.10;99.90;;;;;;4984997;28;20216;-87
2023/10/16 04:34:52;;;;;;;3.15;1.42;;;;;;;;;;4983594;28;20241;-87
2023/10/16 04:37:36;;;;;;;4.88;1.67;;;6.00;99.90;;;;;;4985419;28;20217;-87
2023/10/16 04:43:07;;;;;;;2.17;1.30;;;6.00;99.90;;;;;;4986950;28;20190;-86
2023/10/16 04:45:59;;;;;;;4.07;1.67;;;6.10;99.90;;;;;;4983492;28;20209;-86
2023/10/16 04:49:04;;;;;;;2.58;1.38;;;6.10;85.40;;;;;;4979910;28;20202;-86
2023/10/16 09:37:24;;;;;;;13.07;3.20;;;9.40;1.00;;;;;;5007646;28;20424;-87
2023/10/16 09:43:32;;;;;;;3.10;2.33;;;9.60;50.20;;;;;;4995441;28;20411;-88
2023/10/16 09:46:52;;;;;;;6.57;3.00;;;9.70;1.00;;;;;;4915123;29;20556;-88
2023/10/16 09:52:45;;;;;;;13.57;2.30;;;10.00;1.00;;;;;;4982610;28;20520;-87
2023/10/16 09:55:58;;;;;;;;;;;;;;;;;;;;;
2023/10/16 10:18:31;;;;;;;3.70;1.50;;;10.50;1.00;;;;;;4965033;29;20827;-89
2023/10/16 11:24:24;;;;;;;3.63;2.13;;;10.60;1.00;;;;;;5419741;23;20469;-89
2023/10/16 11:27:57;;;;;;;3.67;1.40;;;10.60;1.00;;;;;;4908818;29;20452;-90
2023/10/16 11:31:09;;;;;;;4.80;1.10;;;10.70;1.00;;;;;;4907359;29;20456;-89
2023/10/16 11:34:00;;;;;;;1.70;1.60;;;10.80;1.00;;;;;;4928101;28;20502;-89
2023/10/16 12:26:43;;;;;;;3.00;1.70;;;11.20;1.00;;;;;;4992946;28;20487;-91
2023/10/16 12:29:37;;;;;;;1.63;1.53;;;11.10;1.00;;;;;;5000160;28;20474;-91
2023/10/16 12:41:59;;;;;;;4.70;1.70;;;11.00;1.00;;;;;;4879829;28;20443;-90
2023/10/16 12:50:50;;;;;;;1.60;1.50;;;10.70;1.00;;;;;;4964243;29;20647;-91
2023/10/16 12:53:50;;;;;;;6.47;1.40;;;10.80;69.80;;;;;;4965771;29;20447;-90
2023/10/16 12:56:57;;;;;;;;;;;;;;;;;;;;;
2023/10/16 12:59:41;;;;;;;2.53;1.50;;;10.30;1.00;;;;;;4961017;29;20442;-91
2023/10/16 13:02:26;;;;;;;2.43;1.50;;;10.10;1.00;;;;;;4973824;28;20499;-92
2023/10/16 13:19:22;;;;;;;3.03;1.83;;;10.20;59.80;;;;;;4999550;23;20842;-91
2023/10/16 13:28:54;;;;;;;1.70;1.50;;;10.50;1.00;;;;;;4842473;29;20488;-91
2023/10/16 13:31:44;;;;;;;;;;;;;;;;;;;;;
2023/10/16 13:35:00;;;;;;;3.10;1.70;;;12.20;1.00;;;;;;4964592;29;20949;-90
2023/10/16 13:38:12;;;;;;;1.53;1.33;;;10.60;1.00;;;;;;4953801;29;20512;-91
2023/10/16 13:41:25;;;;;;;3.07;1.10;;;10.70;1.00;;;;;;4908846;29;20476;-90
2023/10/16 13:56:46;;;;;;;1.37;1.27;;;10.40;1.00;;;;;;4956081;29;20457;-90
2023/10/16 14:00:00;;;;;;;4.70;1.40;;;10.50;1.00;;;;;;4970722;28;20442;-91
2023/10/16 14:02:51;;;;;;;2.90;1.80;;;10.40;99.90;;;;;;4972151;29;20442;-89
2023/10/16 14:08:43;;;;;;;1.43;0.93;;;10.80;1.00;;;;;;4963623;29;21003;-90
2023/10/16 14:15:26;;;;;;;1.87;1.60;;;10.80;1.00;;;;;;4889400;29;20461;-91
2023/10/16 14:21:18;;;;;;;2.80;1.50;;;;;;;;;;4976742;28;20478;-90
2023/10/16 17:58:16;;;;;;;6.70;4.50;;;9.40;99.90;;;;;;4818939;29;20518;-91
2023/10/16 18:05:26;;;;;;;;;;;;;;;;;;;;;
2023/10/16 19:03:14;;;;;;;5.40;3.90;;;8.60;56.10;;;;;;4794490;26;20478;-93
2023/10/16 19:15:02;;;;;;;5.60;3.33;;;8.90;1.00;;;;;;4970696;23;20881;-90
2023/10/16 19:17:32;;;;;;;4.27;3.63;;;;;;;;;;4969195;29;20453;-90
2023/10/16 19:23:10;;;;;;;9.90;6.27;;;8.30;99.90;;;;;;4970872;28;20505;-88
2023/10/16 19:25:48;;;;;;;7.17;3.77;;;8.20;99.90;;;;;;4967377;29;20462;-90
2023/10/16 19:28:31;;;;;;;8.80;4.40;;;7.10;99.90;;;;;;4969689;29;20439;-91
2023/10/16 19:31:04;;;;;;;5.23;4.50;;;8.30;1.00;;;;;;4967237;29;20450;-90
2023/10/16 19:33:36;;;;;;;4.17;3.83;;;8.20;99.90;;;;;;4968363;28;20470;-90
2023/10/16 19:36:20;;;;;;;7.13;4.70;;;8.30;1.00;;;;;;4967133;29;20457;-91
2023/10/16 19:39:18;;;;;;;10.27;4.80;;;8.10;97.60;;;;;;4964670;28;20456;-90
2023/10/16 19:41:52;;;;;;;7.40;6.00;;;;;;;;;;4978826;28;20494;-90
2023/10/16 19:48:07;;;;;;;9.97;5.50;;;;;;;;;;4952053;29;20496;-90
2023/10/16 19:56:46;;;;;;;7.67;4.87;;;8.20;1.00;;;;;;4959376;29;20807;-90
2023/10/16 19:59:17;;;;;;;6.40;4.40;;;;;;;;;;4965500;29;20454;-90
2023/10/16 20:02:25;;;;;;;10.80;7.53;;;8.10;99.90;;;;;;4964824;29;20396;-90
2023/10/16 20:08:16;;;;;;;3.50;3.20;;;;;;;;;;4947204;29;20528;-91
2023/10/16 20:15:02;;;;;;;4.63;3.27;;;8.20;99.90;;;;;;4918474;29;20466;-91
2023/10/16 20:17:39;;;;;;;5.27;3.77;;;8.90;99.90;;;;;;4965819;29;20454;-90
2023/10/16 20:20:36;;;;;;;4.57;3.57;;;8.10;1.00;;;;;;4965799;29;20449;-90
2023/10/16 20:23:39;;;;;;;4.00;3.60;;;8.20;99.90;;;;;;4953930;28;20477;-90
2023/10/16 20:26:27;;;;;;;6.37;3.67;;;8.20;99.90;;;;;;4964996;29;20453;-90
2023/10/16 20:29:20;;;;;;;4.33;3.87;;;8.30;1.00;;;;;;4965110;29;20549;-90
2023/10/16 20:35:32;;;;;;;5.83;3.70;;;8.30;37.80;;;;;;4953211;29;20449;-92
2023/10/16 20:41:50;;;;;;;9.60;3.90;;;8.30;1.00;;;;;;4882533;29;20450;-91
2023/10/16 20:44:31;;;;;;;7.00;3.93;;;8.20;1.00;;;;;;4965380;28;20499;-89
2023/10/16 20:50:15;;;;;;;5.63;4.40;;;8.10;99.90;;;;;;4962069;28;20462;-90
2023/10/16 20:53:04;;;;;;;6.80;4.50;;;8.20;99.90;;;;;;4979581;28;20458;-88
2023/10/16 20:59:09;;;;;;;7.90;4.40;;;8.10;1.00;;;;;;4885453;28;20445;-88
2023/10/16 21:01:59;;;;;;;6.30;4.30;;;9.10;99.90;;;;;;4977059;28;20481;-89
2023/10/16 21:04:56;;;;;;;8.00;3.67;;;8.30;99.90;;;;;;4975860;28;20543;-89
2023/10/16 21:07:39;;;;;;;4.37;3.97;;;8.20;99.90;;;;;;4960893;29;20482;-90
2023/10/16 21:10:11;;;;;;;5.20;3.37;;;;;;;;;;4978142;29;20434;-88
2023/10/16 21:12:46;;;;;;;6.30;4.27;;;;;;;;;;4979540;29;20409;-88
2023/10/16 21:15:37;;;;;;;5.40;3.83;;;8.20;99.90;;;;;;4975015;28;20461;-89
2023/10/16 21:18:17;;;;;;;;;;;;;;;;;;;;;
2023/10/16 21:20:51;;;;;;;4.57;4.10;;;8.10;1.00;;;;;;4960708;29;20506;-88
2023/10/16 21:44:15;;;;;;;6.40;4.33;;;7.70;1.00;;;;;;4119280;26;20531;-91
2023/10/16 21:46:54;;;;;;;6.63;3.40;;;7.80;99.90;;;;;;5019131;28;20481;-89
2023/10/16 21:49:25;;;;;;;6.03;5.23;;;;;;;;;;5012565;28;20528;-93
2023/10/16 21:51:52;;;;;;;4.90;4.07;;;7.90;99.90;;;;;;4997177;28;20470;-92
2023/10/16 21:54:40;;;;;;;6.13;4.90;;;7.60;1.00;;;;;;4989096;28;20412;-93
2023/10/16 21:57:10;;;;;;;5.30;4.20;;;7.70;1.00;;;;;;4989669;28;20449;-92
2023/10/16 21:59:39;;;;;;;6.93;4.03;;;7.70;1.00;;;;;;4988675;28;20465;-92
2023/10/16 22:02:15;;;;;;;4.37;3.87;;;7.60;1.00;;;;;;4986897;28;20468;-92
2023/10/16 22:04:45;;;;;;;5.27;4.10;;;;;;;;;;4997153;28;20472;-92
2023/10/16 22:07:26;;;;;;;3.80;3.50;;;7.70;99.90;;;;;;4986688;28;20480;-93
2023/10/16 22:12:35;;;;;;;4.33;3.40;;;;;;;;;;4985878;28;20531;-92
2023/10/16 22:15:12;;;;;;;4.60;3.70;;;7.60;99.90;;;;;;4989945;28;20453;-92
2023/10/16 22:17:52;;;;;;;6.20;4.23;;;7.50;99.90;;;;;;4999124;28;20437;-89
2023/10/16 22:20:27;;;;;;;5.90;4.60;;;7.50;1.00;;;;;;4999658;28;20398;-90
2023/10/16 22:23:12;;;;;;;5.03;4.47;;;7.50;1.00;;;;;;4999503;28;20480;-90
2023/10/16 22:25:51;;;;;;;8.67;5.37;;;7.60;99.90;;;;;;4999572;28;20429;-91
2023/10/16 22:31:18;;;;;;;10.03;5.07;;;7.30;99.90;;;;;;4988974;28;20473;-92
2023/10/16 22:34:01;;;;;;;10.47;5.40;;;7.30;99.90;;;;;;4984756;28;20861;-92
2023/10/16 22:36:43;;;;;;;13.27;4.73;;;7.30;1.00;;;;;;4984153;28;20429;-93
2023/10/16 22:39:11;;;;;;;8.33;4.57;;;;;;;;;;4980992;28;20433;-92
2023/10/16 22:41:41;;;;;;;6.97;5.10;;;7.20;1.00;;;;;;4985150;28;20523;-92
2023/10/16 22:44:13;;;;;;;5.97;4.53;;;;;;;;;;4988677;28;20480;-92
2023/10/16 22:46:51;;;;;;;7.13;5.50;;;6.20;99.90;;;;;;4987827;28;20437;-93
2023/10/16 22:49:19;;;;;;;8.30;5.70;;;;;;;;;;4984033;28;20838;-92
2023/10/16 22:51:53;;;;;;;8.13;5.20;;;7.00;99.90;;;;;;4984172;28;20473;-92
2023/10/16 22:54:25;;;;;;;8.80;6.50;;;;;;;;;;4985434;28;20437;-92
2023/10/16 22:56:55;;;;;;;11.40;7.70;;;;;;;;;;4983704;28;20932;-92
2023/10/16 22:59:28;;;;;;;17.03;7.73;;;7.00;99.90;;;;;;4984643;28;20441;-91
2023/10/16 23:01:59;;;;;;;6.37;5.50;;;6.60;31.20;;;;;;4991248;28;20485;-90
2023/10/16 23:04:25;;;;;;;7.70;5.88;;;7.30;1.00;;;;;;4998925;28;20480;-89
2023/10/16 23:06:53;;;;;;;14.10;7.73;;;6.90;1.00;;;;;;4999110;28;20186;-90
2023/10/16 23:09:34;;;;;;;9.88;6.57;;;7.00;1.00;;;;;;4999210;28;20429;-89
2023/10/16 23:12:07;;;;;;;12.48;6.60;;;;;;;;;;4999123;28;20198;-89
2023/10/16 23:14:40;;;;;;;8.03;4.97;;;7.20;1.00;;;;;;5001634;28;20193;-90
2023/10/16 23:17:16;;;;;;;7.70;5.07;;;7.20;99.90;;;;;;5002536;28;20433;-89
2023/10/16 23:19:47;;;;;;;6.07;5.43;;;7.50;99.90;;;;;;5002539;28;20432;-91
2023/10/16 23:22:16;;;;;;;7.17;5.73;;;6.90;1.00;;;;;;5001208;28;20448;-92
2023/10/16 23:24:45;;;;;;;6.97;5.03;;;;;;;;;;5001202;28;20457;-92
2023/10/16 23:27:13;;;;;;;7.63;6.28;;;;;;;;;;4997818;28;20252;-93
2023/10/16 23:29:42;;;;;;;7.30;5.30;;;;;;;;;;4992247;28;20716;-92
2023/10/16 23:32:13;;;;;;;10.50;5.37;;;6.80;1.00;;;;;;4992503;28;20457;-91
2023/10/16 23:34:53;;;;;;;8.40;5.97;;;6.40;99.20;;;;;;5002201;28;20441;-89
2023/10/16 23:37:21;;;;;;;8.93;5.97;;;6.60;62.80;;;;;;5002469;28;20192;-90
2023/10/16 23:39:48;;;;;;;5.80;5.28;;;;;;;;;;5002352;28;20429;-90
2023/10/16 23:42:17;;;;;;;5.60;5.10;;;6.50;59.60;;;;;;4994388;28;20256;-92
2023/10/16 23:44:49;;;;;;;6.90;5.20;;;6.30;99.90;;;;;;4985543;28;20421;-92
2023/10/16 23:47:22;;;;;;;7.00;5.95;;;6.40;99.90;;;;;;4983605;28;20228;-92
2023/10/16 23:49:52;;;;;;;10.90;5.40;;;6.40;99.90;;;;;;4985654;28;20221;-92
2023/10/16 23:52:37;;;;;;;13.70;5.88;;;6.10;99.90;;;;;;4998316;28;20490;-92
2023/10/16 23:55:17;;;;;;;6.90;4.87;;;6.00;99.90;;;;;;5000913;28;20193;-92
2023/10/16 23:57:51;;;;;;;10.27;6.40;;;;;;;;;;4998619;28;20481;-91
